Time;durP1;ratioP1;P1;durP2;ratioP2;P2;SDS_P1;SDS_P2;PMS_P1;PMS_P2;Temp;Humidity;BMP_temperature;BMP_pressure;BME280_temperature;BME280_humidity;BME280_pressure;Samples;Min_cycle;Max_cycle;Signal;HPM_P1;HPM_P2
2023/09/13 00:02:08;;;;;;;3.88;1.55;;;;;;;;;;4971759;28;20499;-66
2023/09/13 00:04:35;;;;;;;5.68;1.92;;;;;;;;;;4967479;28;20081;-63
2023/09/13 00:07:02;;;;;;;4.05;1.77;;;;;;;;;;4968356;28;20053;-67
2023/09/13 00:09:29;;;;;;;5.10;1.75;;;;;;;;;;4968722;28;20584;-63
2023/09/13 00:11:55;;;;;;;4.15;1.80;;;;;;;;;;4986766;28;20046;-64
2023/09/13 00:14:22;;;;;;;6.57;1.95;;;;;;;;;;4986359;28;20073;-65
2023/09/13 00:16:50;;;;;;;6.53;2.10;;;;;;;;;;4974692;28;20050;-66
2023/09/13 00:19:17;;;;;;;3.92;1.90;;;;;;;;;;5006838;28;20041;-64
2023/09/13 00:21:44;;;;;;;5.70;1.90;;;;;;;;;;4993964;28;20037;-65
2023/09/13 00:24:11;;;;;;;7.45;1.83;;;;;;;;;;4977835;28;20489;-64
2023/09/13 00:26:37;;;;;;;3.95;1.83;;;;;;;;;;4974770;28;20078;-64
2023/09/13 12:45:07;;;;;;;7.07;1.90;;;;;;;;;;5009534;28;20430;-65
2023/09/13 12:47:35;;;;;;;6.20;1.90;;;;;;;;;;5002851;28;20045;-64
2023/09/13 12:50:02;;;;;;;6.88;2.20;;;;;;;;;;5005064;28;20073;-64
2023/09/13 12:52:29;;;;;;;5.72;2.60;;;;;;;;;;5004316;28;20072;-64
2023/09/13 12:54:56;;;;;;;6.70;2.38;;;;;;;;;;5002991;28;20802;-65
2023/09/13 12:57:23;;;;;;;7.53;2.05;;;;;;;;;;5003472;28;20037;-65
2023/09/13 12:59:51;;;;;;;9.93;2.33;;;;;;;;;;5005719;28;20045;-65
2023/09/13 13:02:18;;;;;;;8.32;2.28;;;;;;;;;;5006336;28;20034;-65
2023/09/13 13:04:45;;;;;;;5.70;2.30;;;;;;;;;;5002066;28;20073;-67
2023/09/13 13:07:20;;;;;;;5.25;2.22;;;;;;;;;;5003230;28;20042;-60
2023/09/13 13:09:50;;;;;;;5.68;2.42;;;;;;;;;;5004375;28;20054;-64
2023/09/13 13:12:17;;;;;;;5.13;2.38;;;;;;;;;;5004290;28;20494;-63
2023/09/13 13:14:50;;;;;;;6.05;2.13;;;;;;;;;;5003948;28;20037;-65
2023/09/13 13:17:17;;;;;;;6.63;2.80;;;;;;;;;;5005068;28;20659;-64
2023/09/13 13:19:44;;;;;;;10.73;2.60;;;;;;;;;;5003831;28;20120;-65
2023/09/13 13:22:14;;;;;;;5.80;2.38;;;;;;;;;;5004512;28;20030;-65
2023/09/13 13:24:41;;;;;;;6.30;2.60;;;;;;;;;;5002447;28;20049;-66
2023/09/13 13:27:08;;;;;;;10.00;2.70;;;;;;;;;;5019124;28;20131;-67
2023/09/13 13:29:36;;;;;;;7.40;2.20;;;;;;;;;;5002346;28;20037;-65
2023/09/13 13:32:04;;;;;;;6.32;2.38;;;;;;;;;;5003137;28;20120;-65
2023/09/13 13:34:31;;;;;;;6.22;2.50;;;;;;;;;;5000643;28;20042;-66
2023/09/13 13:36:58;;;;;;;8.02;2.97;;;;;;;;;;5003568;28;20400;-65
2023/09/13 13:39:24;;;;;;;7.97;2.58;;;;;;;;;;5020542;28;20364;-65
2023/09/13 13:41:51;;;;;;;9.10;2.80;;;;;;;;;;5015152;28;20040;-65
2023/09/13 13:44:18;;;;;;;8.73;2.40;;;;;;;;;;5002408;28;20052;-65
2023/09/13 13:46:45;;;;;;;6.95;2.50;;;;;;;;;;5003343;28;20038;-66
2023/09/13 13:49:16;;;;;;;10.70;2.75;;;;;;;;;;5004180;28;20037;-67
2023/09/13 13:51:45;;;;;;;11.73;2.78;;;;;;;;;;5032916;28;20171;-67
2023/09/13 13:54:12;;;;;;;5.40;2.25;;;;;;;;;;5004636;28;20056;-66
2023/09/13 13:56:42;;;;;;;6.40;2.30;;;;;;;;;;4988981;28;20144;-66
2023/09/13 13:59:10;;;;;;;5.15;2.05;;;;;;;;;;4990214;28;20774;-66
2023/09/13 14:01:37;;;;;;;6.68;1.90;;;;;;;;;;4990023;28;20030;-67
2023/09/13 14:04:03;;;;;;;6.30;2.08;;;;;;;;;;4990318;28;20526;-65
2023/09/13 14:06:30;;;;;;;4.82;1.92;;;;;;;;;;4989676;28;20045;-65
2023/09/13 14:08:57;;;;;;;8.32;1.92;;;;;;;;;;4990396;28;20163;-65
2023/09/13 14:11:23;;;;;;;8.15;2.17;;;;;;;;;;4991978;28;20744;-65
2023/09/13 14:13:50;;;;;;;5.72;1.90;;;;;;;;;;5010392;28;20429;-65
2023/09/13 14:16:17;;;;;;;4.82;1.50;;;;;;;;;;4994542;28;20030;-65
2023/09/13 14:18:44;;;;;;;10.18;1.83;;;;;;;;;;4990851;28;20410;-65
2023/09/13 14:21:10;;;;;;;6.30;1.90;;;;;;;;;;4991284;28;20071;-64
2023/09/13 14:23:37;;;;;;;5.88;1.77;;;;;;;;;;4989597;28;20049;-66
2023/09/13 14:26:04;;;;;;;5.60;1.73;;;;;;;;;;4991045;28;20049;-66
2023/09/13 14:28:32;;;;;;;4.75;1.58;;;;;;;;;;4988713;28;20553;-65
2023/09/13 14:30:59;;;;;;;7.50;1.48;;;;;;;;;;4990794;28;20104;-65
2023/09/13 14:33:30;;;;;;;3.65;1.65;;;;;;;;;;4989354;28;20042;-66
2023/09/13 14:35:56;;;;;;;4.03;1.33;;;;;;;;;;4990594;28;20108;-65
2023/09/13 14:38:23;;;;;;;3.65;1.48;;;;;;;;;;4990444;28;20163;-66
2023/09/13 14:40:50;;;;;;;4.18;1.33;;;;;;;;;;4992705;28;20047;-66
2023/09/13 14:43:16;;;;;;;9.13;1.63;;;;;;;;;;4992120;28;20783;-66
2023/09/13 14:45:43;;;;;;;5.28;1.40;;;;;;;;;;4990843;28;20177;-65
2023/09/13 14:48:10;;;;;;;6.20;1.40;;;;;;;;;;4990967;28;20462;-66
2023/09/13 14:50:37;;;;;;;5.72;1.27;;;;;;;;;;4991082;28;20048;-65
2023/09/13 14:53:03;;;;;;;3.95;1.50;;;;;;;;;;4992160;28;20038;-65
2023/09/13 14:55:30;;;;;;;4.20;1.20;;;;;;;;;;4989940;28;20072;-65
2023/09/13 14:57:57;;;;;;;2.88;1.17;;;;;;;;;;4991456;28;20077;-66
2023/09/13 15:00:23;;;;;;;6.35;1.17;;;;;;;;;;4999375;28;20084;-65
2023/09/13 15:02:50;;;;;;;2.60;0.88;;;;;;;;;;4989874;28;20099;-66
2023/09/13 15:05:17;;;;;;;2.60;0.90;;;;;;;;;;4995077;28;20042;-66
2023/09/13 15:07:43;;;;;;;2.40;0.90;;;;;;;;;;4993380;28;20531;-65
2023/09/13 15:10:12;;;;;;;3.40;1.20;;;;;;;;;;4991412;28;20042;-65
2023/09/13 15:12:39;;;;;;;4.78;1.20;;;;;;;;;;4989097;28;20042;-65
2023/09/13 15:15:06;;;;;;;3.50;0.98;;;;;;;;;;4990828;28;20045;-66
2023/09/13 15:17:33;;;;;;;5.20;1.30;;;;;;;;;;4990401;28;20038;-66
2023/09/13 15:20:00;;;;;;;5.20;1.30;;;;;;;;;;4989511;28;20030;-66
2023/09/13 15:22:27;;;;;;;5.15;1.27;;;;;;;;;;4990598;28;20042;-66
2023/09/13 15:24:54;;;;;;;4.50;1.10;;;;;;;;;;4991255;28;20056;-67
2023/09/13 15:27:21;;;;;;;4.95;1.60;;;;;;;;;;4989102;28;20030;-66
2023/09/13 15:29:47;;;;;;;3.35;1.17;;;;;;;;;;4997182;28;20061;-66
2023/09/13 15:32:14;;;;;;;3.90;1.40;;;;;;;;;;4989394;28;20041;-66
2023/09/13 15:34:41;;;;;;;4.22;1.60;;;;;;;;;;4987869;28;21258;-66
2023/09/13 15:37:08;;;;;;;6.93;1.67;;;;;;;;;;4989708;28;20523;-66
2023/09/13 15:39:35;;;;;;;4.55;1.70;;;;;;;;;;4989135;28;20054;-67
2023/09/13 15:42:02;;;;;;;5.82;2.10;;;;;;;;;;4991105;28;20601;-66
2023/09/13 15:44:28;;;;;;;6.75;2.95;;;;;;;;;;4988560;28;20054;-67
2023/09/13 15:46:55;;;;;;;6.05;2.80;;;;;;;;;;4989413;28;20454;-67
2023/09/13 15:49:23;;;;;;;5.10;2.65;;;;;;;;;;4989788;28;20087;-67
2023/09/13 15:51:50;;;;;;;6.57;2.90;;;;;;;;;;4988138;28;20129;-64
2023/09/13 15:54:17;;;;;;;5.90;3.20;;;;;;;;;;4989044;28;20373;-66
2023/09/13 15:56:44;;;;;;;6.22;2.90;;;;;;;;;;4988284;28;20080;-67
2023/09/13 15:59:11;;;;;;;7.18;2.78;;;;;;;;;;4988401;28;20053;-66
2023/09/13 16:01:37;;;;;;;5.80;2.90;;;;;;;;;;4987667;28;20200;-66
2023/09/13 16:04:04;;;;;;;5.45;2.63;;;;;;;;;;5005613;28;20049;-66
2023/09/13 16:06:31;;;;;;;5.47;2.72;;;;;;;;;;4987026;28;20064;-65
2023/09/13 16:08:57;;;;;;;6.68;2.85;;;;;;;;;;4987921;28;20039;-67
2023/09/13 16:11:24;;;;;;;5.15;2.60;;;;;;;;;;4988454;28;20512;-66
2023/09/13 16:13:51;;;;;;;6.20;2.90;;;;;;;;;;5003077;28;20056;-66
2023/09/13 16:16:18;;;;;;;6.30;2.97;;;;;;;;;;4989109;28;20517;-66
2023/09/13 16:18:44;;;;;;;5.80;3.00;;;;;;;;;;4987145;28;20060;-67
2023/09/13 16:21:11;;;;;;;5.65;3.03;;;;;;;;;;4988377;28;20038;-66
2023/09/13 16:23:37;;;;;;;8.90;3.20;;;;;;;;;;4985473;28;20050;-66
2023/09/13 16:26:05;;;;;;;7.47;3.85;;;;;;;;;;4987935;28;20042;-67
2023/09/13 16:28:32;;;;;;;10.07;4.05;;;;;;;;;;4986994;28;20069;-65
2023/09/13 16:30:58;;;;;;;7.55;4.03;;;;;;;;;;4988775;28;20108;-65
2023/09/13 16:33:25;;;;;;;7.10;4.00;;;;;;;;;;4987745;28;20048;-65
2023/09/13 16:35:51;;;;;;;8.07;4.65;;;;;;;;;;4988767;28;20037;-65
2023/09/13 16:38:19;;;;;;;8.18;4.63;;;;;;;;;;4988460;28;20486;-65
2023/09/13 16:40:46;;;;;;;8.68;4.85;;;;;;;;;;4986408;28;20089;-65
2023/09/13 16:43:12;;;;;;;9.23;5.05;;;;;;;;;;4987747;28;20054;-66
2023/09/13 16:45:39;;;;;;;9.68;4.72;;;;;;;;;;4986795;28;20038;-65
2023/09/13 16:48:08;;;;;;;9.43;5.55;;;;;;;;;;4987416;28;20188;-66
2023/09/13 16:50:34;;;;;;;8.20;4.70;;;;;;;;;;4987019;28;20442;-65
2023/09/13 16:53:01;;;;;;;9.07;5.00;;;;;;;;;;4988229;28;20034;-65
2023/09/13 16:55:28;;;;;;;9.25;4.90;;;;;;;;;;4985471;28;20104;-66
2023/09/13 16:57:54;;;;;;;8.45;5.07;;;;;;;;;;4987456;28;20071;-66
2023/09/13 17:00:22;;;;;;;9.07;5.32;;;;;;;;;;5010077;28;20076;-65
2023/09/13 17:02:49;;;;;;;9.18;4.72;;;;;;;;;;4978689;28;20041;-66
2023/09/13 17:05:16;;;;;;;9.70;4.75;;;;;;;;;;4987637;28;20745;-66
2023/09/13 17:07:42;;;;;;;8.15;4.80;;;;;;;;;;4986758;28;20042;-66
2023/09/13 17:10:09;;;;;;;9.73;4.70;;;;;;;;;;4987726;28;20413;-66
2023/09/13 17:12:36;;;;;;;14.77;5.10;;;;;;;;;;4985408;28;20044;-66
2023/09/13 17:15:04;;;;;;;8.40;4.78;;;;;;;;;;4985811;28;20161;-67
2023/09/13 17:17:30;;;;;;;9.80;5.40;;;;;;;;;;4987415;28;20046;-66
2023/09/13 17:19:57;;;;;;;8.20;4.90;;;;;;;;;;4987987;28;20030;-65
2023/09/13 17:22:23;;;;;;;10.35;5.47;;;;;;;;;;4986512;28;20128;-64
2023/09/13 17:24:50;;;;;;;9.55;5.70;;;;;;;;;;4984086;28;20443;-66
2023/09/13 17:27:19;;;;;;;10.73;5.22;;;;;;;;;;4989056;28;20104;-65
2023/09/13 17:29:45;;;;;;;9.80;5.38;;;;;;;;;;4988211;28;20044;-65
2023/09/13 17:32:12;;;;;;;10.13;5.38;;;;;;;;;;4993460;28;20574;-65
2023/09/13 17:34:39;;;;;;;9.48;5.40;;;;;;;;;;5000118;28;20052;-66
2023/09/13 17:37:05;;;;;;;9.43;4.75;;;;;;;;;;4993225;28;20049;-65
2023/09/13 17:39:32;;;;;;;9.32;4.38;;;;;;;;;;5006835;28;20041;-66
2023/09/13 17:41:59;;;;;;;8.73;4.68;;;;;;;;;;4992982;28;20038;-65
2023/09/13 17:44:25;;;;;;;8.77;4.30;;;;;;;;;;4990762;28;20103;-65
2023/09/13 17:46:52;;;;;;;7.97;4.30;;;;;;;;;;4991807;28;20483;-65
2023/09/13 17:49:19;;;;;;;7.43;4.32;;;;;;;;;;4991601;28;20096;-65
2023/09/13 17:51:46;;;;;;;10.13;4.40;;;;;;;;;;4990788;28;20467;-65
2023/09/13 17:54:15;;;;;;;8.68;4.00;;;;;;;;;;4994078;28;20529;-67
2023/09/13 17:56:41;;;;;;;8.93;4.43;;;;;;;;;;5008808;28;21118;-64
2023/09/13 17:59:08;;;;;;;11.02;4.07;;;;;;;;;;5000234;28;20153;-66
2023/09/13 18:01:34;;;;;;;7.75;4.05;;;;;;;;;;4988451;28;20052;-64
2023/09/13 18:04:03;;;;;;;7.97;4.15;;;;;;;;;;4991133;28;20054;-65
2023/09/13 18:06:29;;;;;;;10.63;5.00;;;;;;;;;;4996636;28;20627;-64
2023/09/13 18:08:56;;;;;;;9.07;4.90;;;;;;;;;;4960905;28;20037;-67
2023/09/13 18:11:25;;;;;;;8.60;4.90;;;;;;;;;;5015909;28;20141;-65
2023/09/13 18:13:52;;;;;;;7.57;4.10;;;;;;;;;;4989603;28;20045;-66
2023/09/13 18:16:19;;;;;;;9.55;4.93;;;;;;;;;;4985905;28;20061;-65
2023/09/13 18:18:45;;;;;;;9.05;4.63;;;;;;;;;;4990673;28;20038;-64
2023/09/13 18:21:13;;;;;;;10.65;4.22;;;;;;;;;;4991616;28;20034;-64
2023/09/13 18:23:39;;;;;;;8.90;4.60;;;;;;;;;;4989787;28;20050;-64
2023/09/13 18:26:06;;;;;;;7.78;4.07;;;;;;;;;;4991501;28;20038;-64
2023/09/13 18:28:33;;;;;;;7.75;4.03;;;;;;;;;;4990577;28;20042;-64
2023/09/13 18:31:06;;;;;;;7.78;3.97;;;;;;;;;;4992358;28;20469;-64
2023/09/13 18:33:36;;;;;;;7.15;4.40;;;;;;;;;;4991877;28;20489;-65
2023/09/13 18:36:02;;;;;;;9.93;4.60;;;;;;;;;;4991909;28;20573;-65
2023/09/13 18:38:29;;;;;;;8.13;4.45;;;;;;;;;;4990629;28;20117;-60
2023/09/13 18:40:56;;;;;;;9.52;3.90;;;;;;;;;;4989775;28;20350;-62
2023/09/13 18:43:23;;;;;;;6.57;4.10;;;;;;;;;;4989377;28;20063;-61
2023/09/13 18:46:00;;;;;;;10.18;4.03;;;;;;;;;;4991330;28;20136;-65
2023/09/13 18:48:26;;;;;;;9.18;3.53;;;;;;;;;;4990604;28;20452;-64
2023/09/13 18:50:57;;;;;;;9.48;4.40;;;;;;;;;;4991177;28;20406;-65
2023/09/13 18:53:24;;;;;;;9.25;3.88;;;;;;;;;;4987692;28;20125;-65
2023/09/13 18:55:52;;;;;;;7.82;4.10;;;;;;;;;;4988459;28;20563;-65
2023/09/13 18:58:19;;;;;;;8.60;3.97;;;;;;;;;;4990177;28;20053;-65
2023/09/13 19:00:46;;;;;;;8.20;4.15;;;;;;;;;;4988488;28;20042;-64
2023/09/13 19:03:12;;;;;;;7.45;3.83;;;;;;;;;;4989956;28;20046;-64
2023/09/13 19:05:39;;;;;;;6.80;3.83;;;;;;;;;;4989134;28;20133;-65
2023/09/13 19:08:06;;;;;;;6.90;3.20;;;;;;;;;;4989079;28;20042;-64
2023/09/13 19:10:34;;;;;;;7.93;3.65;;;;;;;;;;4988567;28;20041;-64
2023/09/13 19:13:01;;;;;;;6.95;3.78;;;;;;;;;;4987297;28;20474;-66
2023/09/13 19:15:27;;;;;;;6.70;3.88;;;;;;;;;;4988359;28;20038;-65
2023/09/13 19:17:54;;;;;;;6.18;3.10;;;;;;;;;;4989338;28;20034;-66
2023/09/13 19:20:22;;;;;;;5.32;2.90;;;;;;;;;;4981665;28;20634;-66
2023/09/13 19:22:49;;;;;;;5.72;2.45;;;;;;;;;;4988780;28;20051;-66
2023/09/13 19:25:16;;;;;;;5.45;2.92;;;;;;;;;;4988609;28;20505;-65
2023/09/13 19:27:42;;;;;;;4.72;2.25;;;;;;;;;;4988594;28;20082;-65
2023/09/13 19:30:09;;;;;;;5.35;2.10;;;;;;;;;;4985931;28;20470;-66
2023/09/13 19:32:36;;;;;;;4.57;2.15;;;;;;;;;;4989070;28;20665;-65
2023/09/13 19:35:22;;;;;;;6.47;2.25;;;;;;;;;;5020896;28;20040;-67
2023/09/13 19:37:49;;;;;;;3.97;2.03;;;;;;;;;;5024536;28;20045;-66
2023/09/13 19:40:16;;;;;;;3.47;1.60;;;;;;;;;;5025136;28;20512;-67
2023/09/13 19:42:42;;;;;;;4.47;1.88;;;;;;;;;;5024305;28;21854;-66
2023/09/13 19:45:09;;;;;;;6.18;2.30;;;;;;;;;;5024935;28;21956;-66
2023/09/13 19:47:36;;;;;;;5.60;2.10;;;;;;;;;;5024126;28;20821;-65
2023/09/13 19:50:03;;;;;;;8.23;2.97;;;;;;;;;;5025131;28;20116;-66
2023/09/13 19:52:30;;;;;;;7.90;2.35;;;;;;;;;;5023621;28;20103;-64
2023/09/13 19:54:56;;;;;;;5.15;2.33;;;;;;;;;;5027709;28;20157;-65
2023/09/13 19:57:23;;;;;;;9.32;2.60;;;;;;;;;;5027265;28;20048;-64
2023/09/13 19:59:49;;;;;;;6.18;2.42;;;;;;;;;;5026604;28;20034;-65
2023/09/13 20:02:18;;;;;;;8.88;2.78;;;;;;;;;;5023275;28;20096;-65
2023/09/13 20:04:45;;;;;;;9.20;2.92;;;;;;;;;;5026871;28;20049;-66
2023/09/13 20:07:13;;;;;;;5.20;2.50;;;;;;;;;;5031263;28;20044;-65
2023/09/13 20:09:43;;;;;;;5.75;2.70;;;;;;;;;;5023615;28;20508;-65
2023/09/13 20:12:10;;;;;;;5.32;2.55;;;;;;;;;;5022425;28;20128;-66
2023/09/13 20:14:39;;;;;;;4.53;2.30;;;;;;;;;;4998811;28;20491;-65
2023/09/13 20:17:07;;;;;;;4.40;2.33;;;;;;;;;;4989945;28;20558;-65
2023/09/13 20:19:34;;;;;;;5.45;2.70;;;;;;;;;;4989411;28;20178;-67
2023/09/13 20:22:01;;;;;;;4.25;2.13;;;;;;;;;;4989614;28;20077;-65
2023/09/13 20:24:27;;;;;;;5.15;2.40;;;;;;;;;;4998875;28;20173;-66
2023/09/13 20:26:54;;;;;;;7.07;2.53;;;;;;;;;;5009819;28;20331;-65
2023/09/13 20:29:22;;;;;;;4.45;1.98;;;;;;;;;;5013563;28;20030;-66
2023/09/13 20:31:49;;;;;;;4.47;2.00;;;;;;;;;;4989395;28;20061;-65
2023/09/13 20:34:18;;;;;;;4.50;2.30;;;;;;;;;;5006035;28;20365;-66
2023/09/13 20:36:45;;;;;;;6.30;2.17;;;;;;;;;;4989355;28;20045;-66
2023/09/13 20:39:15;;;;;;;8.18;2.80;;;;;;;;;;4990042;28;20030;-65
2023/09/13 20:41:43;;;;;;;4.32;2.15;;;;;;;;;;4993310;28;20039;-64
2023/09/13 20:44:29;;;;;;;5.35;2.45;;;;;;;;;;4980805;28;20049;-66
2023/09/13 20:46:56;;;;;;;7.10;2.10;;;;;;;;;;4991701;28;20042;-65
2023/09/13 20:49:23;;;;;;;4.78;2.03;;;;;;;;;;4983659;28;20049;-66
2023/09/13 20:51:50;;;;;;;7.93;2.42;;;;;;;;;;4985277;28;20046;-67
2023/09/13 20:54:17;;;;;;;5.10;2.15;;;;;;;;;;4987680;28;20070;-66
2023/09/13 20:56:44;;;;;;;5.13;2.00;;;;;;;;;;4981284;28;20052;-65
2023/09/13 20:59:10;;;;;;;3.80;1.65;;;;;;;;;;4983974;28;21341;-65
2023/09/13 21:01:37;;;;;;;4.80;2.00;;;;;;;;;;4983995;28;20038;-65
2023/09/13 21:04:04;;;;;;;5.40;2.22;;;;;;;;;;4984536;28;20153;-66
2023/09/13 21:06:30;;;;;;;6.72;2.17;;;;;;;;;;4987611;28;20036;-65
2023/09/13 21:08:57;;;;;;;4.35;1.90;;;;;;;;;;4987778;28;20053;-67
2023/09/13 21:11:24;;;;;;;6.22;2.30;;;;;;;;;;4984598;28;20073;-66
2023/09/13 21:13:51;;;;;;;5.13;2.10;;;;;;;;;;4987670;28;20572;-68
2023/09/13 21:16:17;;;;;;;4.07;2.05;;;;;;;;;;4993153;28;20195;-65
2023/09/13 21:18:44;;;;;;;6.47;2.10;;;;;;;;;;4987219;28;20129;-66
2023/09/13 21:21:10;;;;;;;6.20;2.63;;;;;;;;;;4991908;28;20063;-66
2023/09/13 21:23:37;;;;;;;4.95;2.55;;;;;;;;;;5025435;28;20504;-65
2023/09/13 21:26:04;;;;;;;4.72;1.95;;;;;;;;;;4995133;28;20042;-66
2023/09/13 21:28:30;;;;;;;4.57;2.15;;;;;;;;;;4992597;28;20620;-65
2023/09/13 21:30:57;;;;;;;5.07;1.88;;;;;;;;;;4991179;28;20042;-65
2023/09/13 21:33:24;;;;;;;3.55;1.55;;;;;;;;;;4988534;28;20632;-65
2023/09/13 21:36:01;;;;;;;4.55;1.95;;;;;;;;;;4988140;28;20265;-66
2023/09/13 21:38:27;;;;;;;5.70;1.73;;;;;;;;;;4991340;28;20441;-66
2023/09/13 21:40:54;;;;;;;6.03;1.65;;;;;;;;;;4990313;28;20046;-66
2023/09/13 21:43:21;;;;;;;4.85;2.40;;;;;;;;;;4991524;28;20050;-66
2023/09/13 21:45:48;;;;;;;4.47;1.80;;;;;;;;;;4991481;28;20564;-65
2023/09/13 21:48:15;;;;;;;4.57;1.70;;;;;;;;;;4993029;28;20034;-65
2023/09/13 21:50:45;;;;;;;8.43;2.15;;;;;;;;;;4989566;28;20069;-65
2023/09/13 21:53:15;;;;;;;4.07;1.80;;;;;;;;;;4986397;28;20095;-66
2023/09/13 21:55:42;;;;;;;6.03;1.90;;;;;;;;;;4987303;28;20046;-65
2023/09/13 21:58:17;;;;;;;5.43;2.17;;;;;;;;;;4992595;28;20137;-65
2023/09/13 22:00:46;;;;;;;5.03;1.83;;;;;;;;;;4991415;28;20144;-65
2023/09/13 22:03:13;;;;;;;4.20;1.90;;;;;;;;;;4988191;28;20046;-65
2023/09/13 22:05:39;;;;;;;4.28;1.80;;;;;;;;;;4990154;28;20177;-64
2023/09/13 22:08:07;;;;;;;5.45;2.00;;;;;;;;;;4992034;28;20037;-65
2023/09/13 22:10:33;;;;;;;5.13;1.90;;;;;;;;;;4990917;28;20038;-65
2023/09/13 22:13:01;;;;;;;3.92;1.83;;;;;;;;;;4990630;28;20515;-65
2023/09/13 22:15:27;;;;;;;4.43;2.10;;;;;;;;;;4991461;28;20041;-64
2023/09/13 22:17:54;;;;;;;4.85;2.20;;;;;;;;;;4999170;28;20053;-64
2023/09/13 22:20:21;;;;;;;4.68;1.85;;;;;;;;;;4991661;28;20054;-64
2023/09/13 22:22:48;;;;;;;7.72;1.90;;;;;;;;;;4974189;28;20137;-65
2023/09/13 22:25:19;;;;;;;6.65;2.03;;;;;;;;;;4995774;28;20463;-65
2023/09/13 22:27:46;;;;;;;4.38;2.08;;;;;;;;;;5001907;28;20868;-64
2023/09/13 22:30:13;;;;;;;5.55;1.90;;;;;;;;;;4996957;28;20208;-68
2023/09/13 22:32:39;;;;;;;7.00;2.28;;;;;;;;;;4989299;28;20049;-64
2023/09/13 22:35:06;;;;;;;5.57;1.98;;;;;;;;;;5021424;28;20041;-64
2023/09/13 22:37:33;;;;;;;5.55;2.47;;;;;;;;;;4982092;28;20194;-66
2023/09/13 22:40:01;;;;;;;4.43;2.05;;;;;;;;;;4984747;28;20080;-65
2023/09/13 22:42:47;;;;;;;3.78;1.67;;;;;;;;;;5023800;28;20602;-66
2023/09/13 22:45:14;;;;;;;4.15;2.08;;;;;;;;;;5027736;28;20056;-63
2023/09/13 22:47:41;;;;;;;6.07;1.80;;;;;;;;;;5025536;28;20483;-65
2023/09/13 22:50:07;;;;;;;4.97;1.95;;;;;;;;;;5026854;28;20036;-62
2023/09/13 22:52:34;;;;;;;3.75;1.80;;;;;;;;;;5025120;28;20037;-62
2023/09/13 22:55:01;;;;;;;6.25;2.28;;;;;;;;;;5025754;28;20079;-62
2023/09/13 22:57:32;;;;;;;5.35;2.33;;;;;;;;;;5025420;28;20090;-60
2023/09/13 22:59:59;;;;;;;3.60;1.73;;;;;;;;;;5017217;28;20122;-62
2023/09/13 23:02:26;;;;;;;4.18;2.00;;;;;;;;;;5025536;28;20075;-62
2023/09/13 23:04:53;;;;;;;4.35;2.08;;;;;;;;;;5025351;28;20065;-63
2023/09/13 23:07:19;;;;;;;4.53;2.20;;;;;;;;;;5027141;28;20032;-62
2023/09/13 23:09:46;;;;;;;5.13;2.10;;;;;;;;;;5024500;28;20452;-62
2023/09/13 23:12:13;;;;;;;6.32;1.98;;;;;;;;;;5025136;28;20052;-62
2023/09/13 23:14:40;;;;;;;5.68;2.00;;;;;;;;;;5025130;28;20368;-61
2023/09/13 23:17:06;;;;;;;9.00;2.58;;;;;;;;;;5012284;28;20040;-64
2023/09/13 23:19:36;;;;;;;5.20;2.05;;;;;;;;;;5022839;28;21750;-64
2023/09/13 23:22:03;;;;;;;3.85;2.00;;;;;;;;;;5013922;28;20112;-63
2023/09/13 23:24:30;;;;;;;7.10;2.20;;;;;;;;;;5007255;28;20222;-64
2023/09/13 23:26:57;;;;;;;4.63;2.13;;;;;;;;;;5001080;28;20065;-68
2023/09/13 23:29:24;;;;;;;5.00;2.10;;;;;;;;;;4986721;28;20159;-65
2023/09/13 23:31:50;;;;;;;4.72;2.17;;;;;;;;;;4988732;28;20139;-63
2023/09/13 23:34:17;;;;;;;5.35;1.90;;;;;;;;;;5006638;28;20061;-62
2023/09/13 23:36:44;;;;;;;4.88;1.95;;;;;;;;;;5005403;28;20056;-63
2023/09/13 23:39:11;;;;;;;4.82;2.20;;;;;;;;;;4989201;28;20141;-64
2023/09/13 23:41:38;;;;;;;6.22;2.92;;;;;;;;;;4984789;28;20127;-64
2023/09/13 23:44:04;;;;;;;8.00;2.33;;;;;;;;;;5000024;28;20230;-62
2023/09/13 23:46:31;;;;;;;4.88;2.20;;;;;;;;;;5001813;28;20038;-64
2023/09/13 23:48:58;;;;;;;5.45;2.28;;;;;;;;;;4990731;28;20038;-65
2023/09/13 23:51:44;;;;;;;6.28;2.65;;;;;;;;;;5004696;28;20121;-64
2023/09/13 23:54:11;;;;;;;4.05;2.13;;;;;;;;;;5001365;28;21886;-65
2023/09/13 23:56:37;;;;;;;5.63;2.05;;;;;;;;;;4989860;28;20182;-65
2023/09/13 23:59:04;;;;;;;4.32;2.10;;;;;;;;;;5017766;28;20034;-64
